sensor_id;sensor_type;location;lat;lon;timestamp;P1;durP1;ratioP1;P2;durP2;ratioP2
28373;SDS011;15616;40.148;-102.718;2022-11-15T00:00:48;7.50;;;2.22;;
28373;SDS011;15616;40.148;-102.718;2022-11-15T00:03:15;6.38;;;2.28;;
28373;SDS011;15616;40.148;-102.718;2022-11-15T00:05:42;4.53;;;2.20;;
28373;SDS011;15616;40.148;-102.718;2022-11-15T00:08:08;5.80;;;2.13;;
28373;SDS011;15616;40.148;-102.718;2022-11-15T00:10:35;5.70;;;2.35;;
28373;SDS011;15616;40.148;-102.718;2022-11-15T00:13:11;6.40;;;2.25;;
28373;SDS011;15616;40.148;-102.718;2022-11-15T00:15:38;6.07;;;2.22;;
28373;SDS011;15616;40.148;-102.718;2022-11-15T00:18:06;5.03;;;1.95;;
28373;SDS011;15616;40.148;-102.718;2022-11-15T00:20:37;9.65;;;2.47;;
28373;SDS011;15616;40.148;-102.718;2022-11-15T00:23:03;8.63;;;2.13;;
28373;SDS011;15616;40.148;-102.718;2022-11-15T00:25:30;6.03;;;2.28;;
28373;SDS011;15616;40.148;-102.718;2022-11-15T00:27:57;6.07;;;2.17;;
28373;SDS011;15616;40.148;-102.718;2022-11-15T00:30:23;6.85;;;2.38;;
28373;SDS011;15616;40.148;-102.718;2022-11-15T00:32:50;7.00;;;2.50;;
28373;SDS011;15616;40.148;-102.718;2022-11-15T00:35:16;5.38;;;2.17;;
28373;SDS011;15616;40.148;-102.718;2022-11-15T00:37:42;7.30;;;2.42;;
28373;SDS011;15616;40.148;-102.718;2022-11-15T00:40:08;7.10;;;2.30;;
28373;SDS011;15616;40.148;-102.718;2022-11-15T00:42:35;6.20;;;2.22;;
28373;SDS011;15616;40.148;-102.718;2022-11-15T00:45:01;8.10;;;2.42;;
28373;SDS011;15616;40.148;-102.718;2022-11-15T00:47:27;7.00;;;2.28;;
28373;SDS011;15616;40.148;-102.718;2022-11-15T00:49:53;5.47;;;2.17;;
28373;SDS011;15616;40.148;-102.718;2022-11-15T00:52:18;6.05;;;2.20;;
28373;SDS011;15616;40.148;-102.718;2022-11-15T00:54:44;6.15;;;2.20;;
28373;SDS011;15616;40.148;-102.718;2022-11-15T00:57:10;4.90;;;2.00;;
28373;SDS011;15616;40.148;-102.718;2022-11-15T00:59:36;6.22;;;2.30;;
28373;SDS011;15616;40.148;-102.718;2022-11-15T01:02:02;6.60;;;2.17;;
28373;SDS011;15616;40.148;-102.718;2022-11-15T01:04:27;6.22;;;2.47;;
28373;SDS011;15616;40.148;-102.718;2022-11-15T01:06:53;5.50;;;2.25;;
28373;SDS011;15616;40.148;-102.718;2022-11-15T01:09:19;6.18;;;2.20;;
28373;SDS011;15616;40.148;-102.718;2022-11-15T01:11:45;5.47;;;1.98;;
28373;SDS011;15616;40.148;-102.718;2022-11-15T01:14:11;5.95;;;2.50;;
28373;SDS011;15616;40.148;-102.718;2022-11-15T01:16:37;4.13;;;2.10;;
28373;SDS011;15616;40.148;-102.718;2022-11-15T01:19:03;6.05;;;2.40;;
28373;SDS011;15616;40.148;-102.718;2022-11-15T01:21:29;5.50;;;2.30;;
28373;SDS011;15616;40.148;-102.718;2022-11-15T01:23:55;5.65;;;2.28;;
28373;SDS011;15616;40.148;-102.718;2022-11-15T01:26:22;5.03;;;2.00;;
28373;SDS011;15616;40.148;-102.718;2022-11-15T01:28:50;8.35;;;2.20;;
28373;SDS011;15616;40.148;-102.718;2022-11-15T01:31:17;6.30;;;2.20;;
28373;SDS011;15616;40.148;-102.718;2022-11-15T01:33:44;5.05;;;1.92;;
28373;SDS011;15616;40.148;-102.718;2022-11-15T01:36:12;7.80;;;2.55;;
28373;SDS011;15616;40.148;-102.718;2022-11-15T01:38:39;5.35;;;2.22;;
28373;SDS011;15616;40.148;-102.718;2022-11-15T01:41:05;4.75;;;2.00;;
28373;SDS011;15616;40.148;-102.718;2022-11-15T01:43:35;6.05;;;2.35;;
28373;SDS011;15616;40.148;-102.718;2022-11-15T01:46:04;6.07;;;2.08;;
28373;SDS011;15616;40.148;-102.718;2022-11-15T01:48:38;5.88;;;2.40;;
28373;SDS011;15616;40.148;-102.718;2022-11-15T01:51:07;5.78;;;2.40;;
28373;SDS011;15616;40.148;-102.718;2022-11-15T01:53:37;7.78;;;2.35;;
28373;SDS011;15616;40.148;-102.718;2022-11-15T01:56:06;6.80;;;2.40;;
28373;SDS011;15616;40.148;-102.718;2022-11-15T01:58:34;6.60;;;2.30;;
28373;SDS011;15616;40.148;-102.718;2022-11-15T02:01:01;5.68;;;2.22;;
28373;SDS011;15616;40.148;-102.718;2022-11-15T02:03:31;5.40;;;2.25;;
28373;SDS011;15616;40.148;-102.718;2022-11-15T02:06:05;5.13;;;2.20;;
28373;SDS011;15616;40.148;-102.718;2022-11-15T02:08:30;6.43;;;2.50;;
28373;SDS011;15616;40.148;-102.718;2022-11-15T02:10:56;5.22;;;2.08;;
28373;SDS011;15616;40.148;-102.718;2022-11-15T02:13:22;6.65;;;2.22;;
28373;SDS011;15616;40.148;-102.718;2022-11-15T02:18:26;5.18;;;2.20;;
28373;SDS011;15616;40.148;-102.718;2022-11-15T02:29:55;7.53;;;2.38;;
28373;SDS011;15616;40.148;-102.718;2022-11-15T02:32:44;7.68;;;2.28;;
28373;SDS011;15616;40.148;-102.718;2022-11-15T02:35:35;4.90;;;2.30;;
28373;SDS011;15616;40.148;-102.718;2022-11-15T02:38:18;5.57;;;2.28;;
28373;SDS011;15616;40.148;-102.718;2022-11-15T02:40:58;5.50;;;2.17;;
28373;SDS011;15616;40.148;-102.718;2022-11-15T02:43:46;5.10;;;1.98;;
28373;SDS011;15616;40.148;-102.718;2022-11-15T02:49:16;7.07;;;2.20;;
28373;SDS011;15616;40.148;-102.718;2022-11-15T02:51:43;5.07;;;2.10;;
28373;SDS011;15616;40.148;-102.718;2022-11-15T02:54:14;5.47;;;2.00;;
28373;SDS011;15616;40.148;-102.718;2022-11-15T02:56:48;5.32;;;2.15;;
28373;SDS011;15616;40.148;-102.718;2022-11-15T03:05:08;4.90;;;2.10;;
28373;SDS011;15616;40.148;-102.718;2022-11-15T03:07:59;7.10;;;2.33;;
28373;SDS011;15616;40.148;-102.718;2022-11-15T03:16:15;5.63;;;2.00;;
28373;SDS011;15616;40.148;-102.718;2022-11-15T03:18:51;5.15;;;1.88;;
28373;SDS011;15616;40.148;-102.718;2022-11-15T03:21:22;5.85;;;2.28;;
28373;SDS011;15616;40.148;-102.718;2022-11-15T03:23:49;5.05;;;2.03;;
28373;SDS011;15616;40.148;-102.718;2022-11-15T03:26:18;6.40;;;2.38;;
28373;SDS011;15616;40.148;-102.718;2022-11-15T03:28:54;3.80;;;2.00;;
28373;SDS011;15616;40.148;-102.718;2022-11-15T03:31:25;5.05;;;2.13;;
28373;SDS011;15616;40.148;-102.718;2022-11-15T03:35:00;6.00;;;2.30;;
28373;SDS011;15616;40.148;-102.718;2022-11-15T03:36:59;5.38;;;2.40;;
28373;SDS011;15616;40.148;-102.718;2022-11-15T03:39:25;5.43;;;2.00;;
28373;SDS011;15616;40.148;-102.718;2022-11-15T03:42:17;5.32;;;2.00;;
28373;SDS011;15616;40.148;-102.718;2022-11-15T03:44:46;5.88;;;2.03;;
28373;SDS011;15616;40.148;-102.718;2022-11-15T03:47:19;3.88;;;1.90;;
28373;SDS011;15616;40.148;-102.718;2022-11-15T03:49:50;5.78;;;2.08;;
28373;SDS011;15616;40.148;-102.718;2022-11-15T03:52:21;5.60;;;1.92;;
28373;SDS011;15616;40.148;-102.718;2022-11-15T03:54:49;4.43;;;2.00;;
28373;SDS011;15616;40.148;-102.718;2022-11-15T03:57:19;5.72;;;2.05;;
28373;SDS011;15616;40.148;-102.718;2022-11-15T03:59:45;6.22;;;2.20;;
28373;SDS011;15616;40.148;-102.718;2022-11-15T04:02:11;5.40;;;2.15;;
28373;SDS011;15616;40.148;-102.718;2022-11-15T04:04:37;5.00;;;2.17;;
28373;SDS011;15616;40.148;-102.718;2022-11-15T04:07:03;5.45;;;2.15;;
28373;SDS011;15616;40.148;-102.718;2022-11-15T04:09:29;5.03;;;2.03;;
28373;SDS011;15616;40.148;-102.718;2022-11-15T04:11:55;4.85;;;2.22;;
28373;SDS011;15616;40.148;-102.718;2022-11-15T04:14:20;5.55;;;1.90;;
28373;SDS011;15616;40.148;-102.718;2022-11-15T04:16:46;6.30;;;2.03;;
28373;SDS011;15616;40.148;-102.718;2022-11-15T04:19:12;6.47;;;2.47;;
28373;SDS011;15616;40.148;-102.718;2022-11-15T04:21:57;6.20;;;2.15;;
28373;SDS011;15616;40.148;-102.718;2022-11-15T04:24:41;5.97;;;2.30;;
28373;SDS011;15616;40.148;-102.718;2022-11-15T04:27:06;5.72;;;2.00;;
28373;SDS011;15616;40.148;-102.718;2022-11-15T04:29:32;4.97;;;2.15;;
28373;SDS011;15616;40.148;-102.718;2022-11-15T04:32:02;5.18;;;2.08;;
28373;SDS011;15616;40.148;-102.718;2022-11-15T04:34:29;4.45;;;1.77;;
28373;SDS011;15616;40.148;-102.718;2022-11-15T04:36:55;5.25;;;1.92;;
28373;SDS011;15616;40.148;-102.718;2022-11-15T04:39:37;4.47;;;2.08;;
28373;SDS011;15616;40.148;-102.718;2022-11-15T04:42:03;4.18;;;1.77;;
28373;SDS011;15616;40.148;-102.718;2022-11-15T04:44:29;6.47;;;2.40;;
28373;SDS011;15616;40.148;-102.718;2022-11-15T04:46:55;5.30;;;1.90;;
28373;SDS011;15616;40.148;-102.718;2022-11-15T04:49:21;4.30;;;1.92;;
28373;SDS011;15616;40.148;-102.718;2022-11-15T04:51:47;4.40;;;2.13;;
28373;SDS011;15616;40.148;-102.718;2022-11-15T04:54:13;4.90;;;2.10;;
28373;SDS011;15616;40.148;-102.718;2022-11-15T04:56:39;3.88;;;1.95;;
28373;SDS011;15616;40.148;-102.718;2022-11-15T04:59:04;5.75;;;2.20;;
28373;SDS011;15616;40.148;-102.718;2022-11-15T05:01:31;5.68;;;2.20;;
28373;SDS011;15616;40.148;-102.718;2022-11-15T05:03:57;7.32;;;2.35;;
28373;SDS011;15616;40.148;-102.718;2022-11-15T05:06:41;5.50;;;2.17;;
28373;SDS011;15616;40.148;-102.718;2022-11-15T05:09:07;6.43;;;1.98;;
28373;SDS011;15616;40.148;-102.718;2022-11-15T05:11:33;5.15;;;2.15;;
28373;SDS011;15616;40.148;-102.718;2022-11-15T05:13:59;4.55;;;2.08;;
28373;SDS011;15616;40.148;-102.718;2022-11-15T05:16:25;5.30;;;2.03;;
28373;SDS011;15616;40.148;-102.718;2022-11-15T05:18:51;4.28;;;1.95;;
28373;SDS011;15616;40.148;-102.718;2022-11-15T05:21:18;4.35;;;1.80;;
28373;SDS011;15616;40.148;-102.718;2022-11-15T05:23:45;3.80;;;1.77;;
28373;SDS011;15616;40.148;-102.718;2022-11-15T05:26:11;6.35;;;2.20;;
28373;SDS011;15616;40.148;-102.718;2022-11-15T05:28:37;4.78;;;1.90;;
28373;SDS011;15616;40.148;-102.718;2022-11-15T05:31:04;5.38;;;2.15;;
28373;SDS011;15616;40.148;-102.718;2022-11-15T05:33:35;5.88;;;2.20;;
28373;SDS011;15616;40.148;-102.718;2022-11-15T05:36:47;4.85;;;1.90;;
28373;SDS011;15616;40.148;-102.718;2022-11-15T05:38:56;5.10;;;2.00;;
28373;SDS011;15616;40.148;-102.718;2022-11-15T05:41:27;5.88;;;1.95;;
28373;SDS011;15616;40.148;-102.718;2022-11-15T05:44:07;3.60;;;1.88;;
28373;SDS011;15616;40.148;-102.718;2022-11-15T05:46:36;4.18;;;2.15;;
28373;SDS011;15616;40.148;-102.718;2022-11-15T05:49:05;4.43;;;1.90;;
28373;SDS011;15616;40.148;-102.718;2022-11-15T05:51:35;4.43;;;2.00;;
28373;SDS011;15616;40.148;-102.718;2022-11-15T05:54:01;3.83;;;1.83;;
28373;SDS011;15616;40.148;-102.718;2022-11-15T05:56:28;3.90;;;1.95;;
28373;SDS011;15616;40.148;-102.718;2022-11-15T05:58:54;3.53;;;2.00;;
28373;SDS011;15616;40.148;-102.718;2022-11-15T06:01:22;6.22;;;2.30;;
28373;SDS011;15616;40.148;-102.718;2022-11-15T06:03:50;4.13;;;1.90;;
28373;SDS011;15616;40.148;-102.718;2022-11-15T06:06:16;3.67;;;1.80;;
28373;SDS011;15616;40.148;-102.718;2022-11-15T06:08:41;4.75;;;1.90;;
28373;SDS011;15616;40.148;-102.718;2022-11-15T06:11:07;4.18;;;2.08;;
28373;SDS011;15616;40.148;-102.718;2022-11-15T06:13:34;6.85;;;2.45;;
28373;SDS011;15616;40.148;-102.718;2022-11-15T06:16:00;5.18;;;1.92;;
28373;SDS011;15616;40.148;-102.718;2022-11-15T06:18:26;4.25;;;2.00;;
28373;SDS011;15616;40.148;-102.718;2022-11-15T06:20:52;3.75;;;1.73;;
28373;SDS011;15616;40.148;-102.718;2022-11-15T06:23:18;4.88;;;2.00;;
28373;SDS011;15616;40.148;-102.718;2022-11-15T06:25:44;3.53;;;1.90;;
28373;SDS011;15616;40.148;-102.718;2022-11-15T06:28:10;4.05;;;1.85;;
28373;SDS011;15616;40.148;-102.718;2022-11-15T06:30:36;5.90;;;2.20;;
28373;SDS011;15616;40.148;-102.718;2022-11-15T06:33:03;4.10;;;2.00;;
28373;SDS011;15616;40.148;-102.718;2022-11-15T06:35:30;4.13;;;1.75;;
28373;SDS011;15616;40.148;-102.718;2022-11-15T06:38:05;8.75;;;2.05;;
28373;SDS011;15616;40.148;-102.718;2022-11-15T06:40:36;4.85;;;1.90;;
28373;SDS011;15616;40.148;-102.718;2022-11-15T06:43:03;6.32;;;2.20;;
28373;SDS011;15616;40.148;-102.718;2022-11-15T06:45:30;3.95;;;1.95;;
28373;SDS011;15616;40.148;-102.718;2022-11-15T06:47:56;4.72;;;2.10;;
28373;SDS011;15616;40.148;-102.718;2022-11-15T06:50:22;5.43;;;2.30;;
28373;SDS011;15616;40.148;-102.718;2022-11-15T06:52:48;5.63;;;2.30;;
28373;SDS011;15616;40.148;-102.718;2022-11-15T06:55:14;6.97;;;2.10;;
28373;SDS011;15616;40.148;-102.718;2022-11-15T06:57:49;4.82;;;2.05;;
28373;SDS011;15616;40.148;-102.718;2022-11-15T07:00:18;6.47;;;2.22;;
28373;SDS011;15616;40.148;-102.718;2022-11-15T07:02:45;6.57;;;2.20;;
28373;SDS011;15616;40.148;-102.718;2022-11-15T07:05:12;7.80;;;2.38;;
28373;SDS011;15616;40.148;-102.718;2022-11-15T07:07:39;6.78;;;2.15;;
28373;SDS011;15616;40.148;-102.718;2022-11-15T07:10:05;9.27;;;2.63;;
28373;SDS011;15616;40.148;-102.718;2022-11-15T07:12:32;20.33;;;3.45;;
28373;SDS011;15616;40.148;-102.718;2022-11-15T07:14:59;9.27;;;2.72;;
28373;SDS011;15616;40.148;-102.718;2022-11-15T07:17:25;10.00;;;2.40;;
28373;SDS011;15616;40.148;-102.718;2022-11-15T07:19:51;9.45;;;2.90;;
28373;SDS011;15616;40.148;-102.718;2022-11-15T07:22:17;12.77;;;2.70;;
28373;SDS011;15616;40.148;-102.718;2022-11-15T07:24:43;11.05;;;2.65;;
28373;SDS011;15616;40.148;-102.718;2022-11-15T07:27:09;13.30;;;3.15;;
28373;SDS011;15616;40.148;-102.718;2022-11-15T07:29:35;24.05;;;3.00;;
28373;SDS011;15616;40.148;-102.718;2022-11-15T07:32:01;11.65;;;2.20;;
28373;SDS011;15616;40.148;-102.718;2022-11-15T07:34:27;14.23;;;2.55;;
28373;SDS011;15616;40.148;-102.718;2022-11-15T07:36:53;6.53;;;2.40;;
28373;SDS011;15616;40.148;-102.718;2022-11-15T07:39:19;11.63;;;2.50;;
28373;SDS011;15616;40.148;-102.718;2022-11-15T07:41:45;14.70;;;2.92;;
28373;SDS011;15616;40.148;-102.718;2022-11-15T07:44:13;6.82;;;2.42;;
28373;SDS011;15616;40.148;-102.718;2022-11-15T07:46:39;13.77;;;2.15;;
28373;SDS011;15616;40.148;-102.718;2022-11-15T07:49:05;6.70;;;2.40;;
28373;SDS011;15616;40.148;-102.718;2022-11-15T07:51:31;11.25;;;2.30;;
28373;SDS011;15616;40.148;-102.718;2022-11-15T07:53:57;18.20;;;2.55;;
28373;SDS011;15616;40.148;-102.718;2022-11-15T07:56:23;14.05;;;2.70;;
28373;SDS011;15616;40.148;-102.718;2022-11-15T07:58:48;8.70;;;2.17;;
28373;SDS011;15616;40.148;-102.718;2022-11-15T08:01:15;16.58;;;2.75;;
28373;SDS011;15616;40.148;-102.718;2022-11-15T08:03:41;15.93;;;2.28;;
28373;SDS011;15616;40.148;-102.718;2022-11-15T08:06:07;6.57;;;2.40;;
28373;SDS011;15616;40.148;-102.718;2022-11-15T08:08:33;8.65;;;2.40;;
28373;SDS011;15616;40.148;-102.718;2022-11-15T08:10:59;16.92;;;2.38;;
28373;SDS011;15616;40.148;-102.718;2022-11-15T08:13:25;11.52;;;2.45;;
28373;SDS011;15616;40.148;-102.718;2022-11-15T08:15:51;10.98;;;2.67;;
28373;SDS011;15616;40.148;-102.718;2022-11-15T08:18:17;10.48;;;2.50;;
28373;SDS011;15616;40.148;-102.718;2022-11-15T08:20:43;10.57;;;2.60;;
28373;SDS011;15616;40.148;-102.718;2022-11-15T08:23:10;19.17;;;3.13;;
28373;SDS011;15616;40.148;-102.718;2022-11-15T08:25:38;9.15;;;2.35;;
28373;SDS011;15616;40.148;-102.718;2022-11-15T08:28:05;9.43;;;2.30;;
28373;SDS011;15616;40.148;-102.718;2022-11-15T08:30:36;12.93;;;2.42;;
28373;SDS011;15616;40.148;-102.718;2022-11-15T08:33:09;7.60;;;2.58;;
28373;SDS011;15616;40.148;-102.718;2022-11-15T08:35:36;12.98;;;2.70;;
28373;SDS011;15616;40.148;-102.718;2022-11-15T08:38:02;12.95;;;2.50;;
28373;SDS011;15616;40.148;-102.718;2022-11-15T08:40:28;8.45;;;2.28;;
28373;SDS011;15616;40.148;-102.718;2022-11-15T08:42:54;10.90;;;3.08;;
28373;SDS011;15616;40.148;-102.718;2022-11-15T08:45:20;13.30;;;2.70;;
28373;SDS011;15616;40.148;-102.718;2022-11-15T08:47:46;13.98;;;2.85;;
28373;SDS011;15616;40.148;-102.718;2022-11-15T08:50:12;13.25;;;2.50;;
28373;SDS011;15616;40.148;-102.718;2022-11-15T08:52:38;11.25;;;2.65;;
28373;SDS011;15616;40.148;-102.718;2022-11-15T08:55:04;8.85;;;2.60;;
28373;SDS011;15616;40.148;-102.718;2022-11-15T08:57:30;18.45;;;2.85;;
28373;SDS011;15616;40.148;-102.718;2022-11-15T08:59:56;18.73;;;2.92;;
28373;SDS011;15616;40.148;-102.718;2022-11-15T09:02:22;14.60;;;2.88;;
28373;SDS011;15616;40.148;-102.718;2022-11-15T09:04:48;13.45;;;3.00;;
28373;SDS011;15616;40.148;-102.718;2022-11-15T09:07:14;14.07;;;2.67;;
28373;SDS011;15616;40.148;-102.718;2022-11-15T09:09:40;27.70;;;3.08;;
28373;SDS011;15616;40.148;-102.718;2022-11-15T09:12:06;25.73;;;2.90;;
28373;SDS011;15616;40.148;-102.718;2022-11-15T09:14:32;23.95;;;3.72;;
28373;SDS011;15616;40.148;-102.718;2022-11-15T09:16:59;18.17;;;2.85;;
28373;SDS011;15616;40.148;-102.718;2022-11-15T09:19:26;19.48;;;3.63;;
28373;SDS011;15616;40.148;-102.718;2022-11-15T09:21:52;17.27;;;3.45;;
28373;SDS011;15616;40.148;-102.718;2022-11-15T09:24:18;35.75;;;4.75;;
28373;SDS011;15616;40.148;-102.718;2022-11-15T09:26:44;27.52;;;5.55;;
28373;SDS011;15616;40.148;-102.718;2022-11-15T09:29:10;19.92;;;4.78;;
28373;SDS011;15616;40.148;-102.718;2022-11-15T09:31:35;55.30;;;9.45;;
28373;SDS011;15616;40.148;-102.718;2022-11-15T09:34:01;26.85;;;5.53;;
28373;SDS011;15616;40.148;-102.718;2022-11-15T09:36:27;28.20;;;4.40;;
28373;SDS011;15616;40.148;-102.718;2022-11-15T09:38:53;30.08;;;4.07;;
28373;SDS011;15616;40.148;-102.718;2022-11-15T09:41:36;34.00;;;5.05;;
28373;SDS011;15616;40.148;-102.718;2022-11-15T09:50:41;28.98;;;6.65;;
28373;SDS011;15616;40.148;-102.718;2022-11-15T09:53:12;28.90;;;4.60;;
28373;SDS011;15616;40.148;-102.718;2022-11-15T10:04:12;31.45;;;6.40;;
28373;SDS011;15616;40.148;-102.718;2022-11-15T10:06:41;43.63;;;6.55;;
28373;SDS011;15616;40.148;-102.718;2022-11-15T10:09:16;32.80;;;5.72;;
28373;SDS011;15616;40.148;-102.718;2022-11-15T10:11:57;43.75;;;6.72;;
28373;SDS011;15616;40.148;-102.718;2022-11-15T10:14:24;38.20;;;6.00;;
28373;SDS011;15616;40.148;-102.718;2022-11-15T10:27:44;36.85;;;7.35;;
28373;SDS011;15616;40.148;-102.718;2022-11-15T10:30:31;33.63;;;7.88;;
28373;SDS011;15616;40.148;-102.718;2022-11-15T10:33:13;49.70;;;8.32;;
28373;SDS011;15616;40.148;-102.718;2022-11-15T10:35:47;34.45;;;7.00;;
28373;SDS011;15616;40.148;-102.718;2022-11-15T10:38:13;43.08;;;7.65;;
28373;SDS011;15616;40.148;-102.718;2022-11-15T10:40:39;36.13;;;7.28;;
28373;SDS011;15616;40.148;-102.718;2022-11-15T10:43:13;30.83;;;6.13;;
28373;SDS011;15616;40.148;-102.718;2022-11-15T10:45:43;36.38;;;6.60;;
28373;SDS011;15616;40.148;-102.718;2022-11-15T10:50:45;25.77;;;7.03;;
28373;SDS011;15616;40.148;-102.718;2022-11-15T10:55:51;33.00;;;6.13;;
28373;SDS011;15616;40.148;-102.718;2022-11-15T11:00:48;31.30;;;5.90;;
28373;SDS011;15616;40.148;-102.718;2022-11-15T11:03:35;45.92;;;7.32;;
28373;SDS011;15616;40.148;-102.718;2022-11-15T11:06:13;29.27;;;6.72;;
28373;SDS011;15616;40.148;-102.718;2022-11-15T11:08:59;27.70;;;6.43;;
28373;SDS011;15616;40.148;-102.718;2022-11-15T11:11:43;32.90;;;6.60;;
28373;SDS011;15616;40.148;-102.718;2022-11-15T11:14:12;26.77;;;6.80;;
28373;SDS011;15616;40.148;-102.718;2022-11-15T11:16:48;23.63;;;6.95;;
28373;SDS011;15616;40.148;-102.718;2022-11-15T11:22:09;29.70;;;6.95;;
28373;SDS011;15616;40.148;-102.718;2022-11-15T11:30:10;40.58;;;7.35;;
28373;SDS011;15616;40.148;-102.718;2022-11-15T11:33:04;44.65;;;7.95;;
28373;SDS011;15616;40.148;-102.718;2022-11-15T11:38:22;45.67;;;9.65;;
28373;SDS011;15616;40.148;-102.718;2022-11-15T11:40:58;39.25;;;9.43;;
28373;SDS011;15616;40.148;-102.718;2022-11-15T11:43:58;169.15;;;27.63;;
28373;SDS011;15616;40.148;-102.718;2022-11-15T11:46:32;135.77;;;20.83;;
28373;SDS011;15616;40.148;-102.718;2022-11-15T11:49:03;51.95;;;10.85;;
28373;SDS011;15616;40.148;-102.718;2022-11-15T11:51:49;309.30;;;38.58;;
28373;SDS011;15616;40.148;-102.718;2022-11-15T11:54:22;89.20;;;14.07;;
28373;SDS011;15616;40.148;-102.718;2022-11-15T11:56:59;142.95;;;20.88;;
28373;SDS011;15616;40.148;-102.718;2022-11-15T11:59:42;70.80;;;13.70;;
28373;SDS011;15616;40.148;-102.718;2022-11-15T12:02:18;53.70;;;9.52;;
28373;SDS011;15616;40.148;-102.718;2022-11-15T12:04:53;79.18;;;11.10;;
28373;SDS011;15616;40.148;-102.718;2022-11-15T12:07:39;112.53;;;17.13;;
28373;SDS011;15616;40.148;-102.718;2022-11-15T12:17:41;116.07;;;15.23;;
28373;SDS011;15616;40.148;-102.718;2022-11-15T12:22:47;86.45;;;13.60;;
28373;SDS011;15616;40.148;-102.718;2022-11-15T12:25:21;99.32;;;16.63;;
28373;SDS011;15616;40.148;-102.718;2022-11-15T12:30:50;68.78;;;12.27;;
28373;SDS011;15616;40.148;-102.718;2022-11-15T12:36:01;87.18;;;15.02;;
28373;SDS011;15616;40.148;-102.718;2022-11-15T12:41:32;102.40;;;16.75;;
28373;SDS011;15616;40.148;-102.718;2022-11-15T12:43:59;126.82;;;21.48;;
28373;SDS011;15616;40.148;-102.718;2022-11-15T12:52:07;98.85;;;19.00;;
28373;SDS011;15616;40.148;-102.718;2022-11-15T13:03:12;104.22;;;18.15;;
28373;SDS011;15616;40.148;-102.718;2022-11-15T13:05:53;108.65;;;17.27;;
28373;SDS011;15616;40.148;-102.718;2022-11-15T13:08:41;81.47;;;17.10;;
28373;SDS011;15616;40.148;-102.718;2022-11-15T13:17:26;97.25;;;16.60;;
28373;SDS011;15616;40.148;-102.718;2022-11-15T13:20:01;80.43;;;17.30;;
28373;SDS011;15616;40.148;-102.718;2022-11-15T13:22:37;78.93;;;16.48;;
28373;SDS011;15616;40.148;-102.718;2022-11-15T13:25:27;104.28;;;17.92;;
28373;SDS011;15616;40.148;-102.718;2022-11-15T13:28:02;93.75;;;18.02;;
28373;SDS011;15616;40.148;-102.718;2022-11-15T13:30:29;100.93;;;18.25;;
28373;SDS011;15616;40.148;-102.718;2022-11-15T13:32:57;93.07;;;19.58;;
28373;SDS011;15616;40.148;-102.718;2022-11-15T13:35:28;91.15;;;19.23;;
28373;SDS011;15616;40.148;-102.718;2022-11-15T13:37:56;101.20;;;17.70;;
28373;SDS011;15616;40.148;-102.718;2022-11-15T13:40:34;93.03;;;18.23;;
28373;SDS011;15616;40.148;-102.718;2022-11-15T13:43:19;85.88;;;17.75;;
28373;SDS011;15616;40.148;-102.718;2022-11-15T13:49:09;89.55;;;17.17;;
28373;SDS011;15616;40.148;-102.718;2022-11-15T13:56:39;97.97;;;18.95;;
28373;SDS011;15616;40.148;-102.718;2022-11-15T14:01:51;69.78;;;16.55;;
28373;SDS011;15616;40.148;-102.718;2022-11-15T14:04:21;86.03;;;17.63;;
28373;SDS011;15616;40.148;-102.718;2022-11-15T14:06:51;74.15;;;16.88;;
28373;SDS011;15616;40.148;-102.718;2022-11-15T14:09:36;88.32;;;17.48;;
28373;SDS011;15616;40.148;-102.718;2022-11-15T14:12:26;71.82;;;16.60;;
28373;SDS011;15616;40.148;-102.718;2022-11-15T14:14:52;78.18;;;15.68;;
28373;SDS011;15616;40.148;-102.718;2022-11-15T14:17:32;83.55;;;16.35;;
28373;SDS011;15616;40.148;-102.718;2022-11-15T14:20:00;75.75;;;16.08;;
28373;SDS011;15616;40.148;-102.718;2022-11-15T14:22:30;93.18;;;16.55;;
28373;SDS011;15616;40.148;-102.718;2022-11-15T14:25:07;75.53;;;16.02;;
28373;SDS011;15616;40.148;-102.718;2022-11-15T14:27:42;81.05;;;15.90;;
28373;SDS011;15616;40.148;-102.718;2022-11-15T14:30:12;84.95;;;16.55;;
28373;SDS011;15616;40.148;-102.718;2022-11-15T14:35:20;100.72;;;17.23;;
28373;SDS011;15616;40.148;-102.718;2022-11-15T14:37:47;86.43;;;18.60;;
28373;SDS011;15616;40.148;-102.718;2022-11-15T14:40:17;70.95;;;17.27;;
28373;SDS011;15616;40.148;-102.718;2022-11-15T14:42:44;78.50;;;17.52;;
28373;SDS011;15616;40.148;-102.718;2022-11-15T14:45:21;89.72;;;16.23;;
28373;SDS011;15616;40.148;-102.718;2022-11-15T14:47:47;84.07;;;15.88;;
28373;SDS011;15616;40.148;-102.718;2022-11-15T14:50:18;83.75;;;16.10;;
28373;SDS011;15616;40.148;-102.718;2022-11-15T14:52:46;74.53;;;15.50;;
28373;SDS011;15616;40.148;-102.718;2022-11-15T14:55:15;80.40;;;15.85;;
28373;SDS011;15616;40.148;-102.718;2022-11-15T14:57:42;69.43;;;15.55;;
28373;SDS011;15616;40.148;-102.718;2022-11-15T15:00:08;86.80;;;16.33;;
28373;SDS011;15616;40.148;-102.718;2022-11-15T15:02:35;72.63;;;15.88;;
28373;SDS011;15616;40.148;-102.718;2022-11-15T15:05:01;79.18;;;17.15;;
28373;SDS011;15616;40.148;-102.718;2022-11-15T15:07:35;83.70;;;16.63;;
28373;SDS011;15616;40.148;-102.718;2022-11-15T15:10:01;63.58;;;15.15;;
28373;SDS011;15616;40.148;-102.718;2022-11-15T15:12:27;72.30;;;14.95;;
28373;SDS011;15616;40.148;-102.718;2022-11-15T15:14:54;62.60;;;14.70;;
28373;SDS011;15616;40.148;-102.718;2022-11-15T15:17:20;64.00;;;15.27;;
28373;SDS011;15616;40.148;-102.718;2022-11-15T15:19:45;91.20;;;15.98;;
28373;SDS011;15616;40.148;-102.718;2022-11-15T15:22:12;88.03;;;16.73;;
28373;SDS011;15616;40.148;-102.718;2022-11-15T15:24:41;67.45;;;15.68;;
28373;SDS011;15616;40.148;-102.718;2022-11-15T15:27:08;65.00;;;15.50;;
28373;SDS011;15616;40.148;-102.718;2022-11-15T15:29:34;70.38;;;14.75;;
28373;SDS011;15616;40.148;-102.718;2022-11-15T15:32:00;61.55;;;14.55;;
28373;SDS011;15616;40.148;-102.718;2022-11-15T15:34:26;60.35;;;14.70;;
28373;SDS011;15616;40.148;-102.718;2022-11-15T15:37:08;61.53;;;15.65;;
28373;SDS011;15616;40.148;-102.718;2022-11-15T15:39:52;59.53;;;14.45;;
28373;SDS011;15616;40.148;-102.718;2022-11-15T15:42:19;58.03;;;13.93;;
28373;SDS011;15616;40.148;-102.718;2022-11-15T15:44:46;52.67;;;14.48;;
28373;SDS011;15616;40.148;-102.718;2022-11-15T15:47:13;61.40;;;14.40;;
28373;SDS011;15616;40.148;-102.718;2022-11-15T15:49:45;45.38;;;13.57;;
28373;SDS011;15616;40.148;-102.718;2022-11-15T15:52:11;60.78;;;14.30;;
28373;SDS011;15616;40.148;-102.718;2022-11-15T15:54:38;58.63;;;14.02;;
28373;SDS011;15616;40.148;-102.718;2022-11-15T15:57:04;55.05;;;13.50;;
28373;SDS011;15616;40.148;-102.718;2022-11-15T15:59:31;58.70;;;12.93;;
28373;SDS011;15616;40.148;-102.718;2022-11-15T16:01:57;64.47;;;14.57;;
28373;SDS011;15616;40.148;-102.718;2022-11-15T16:04:23;66.78;;;14.77;;
28373;SDS011;15616;40.148;-102.718;2022-11-15T16:06:49;67.50;;;14.85;;
28373;SDS011;15616;40.148;-102.718;2022-11-15T16:09:18;53.83;;;14.15;;
28373;SDS011;15616;40.148;-102.718;2022-11-15T16:12:07;67.78;;;14.45;;
28373;SDS011;15616;40.148;-102.718;2022-11-15T16:14:33;53.28;;;13.32;;
28373;SDS011;15616;40.148;-102.718;2022-11-15T16:16:59;48.60;;;12.23;;